This is the latest recevied weather packets stored in our database for station/object HG6IQI-10. If no packets are shown the sender has not sent any weather packets the latest 10 day(s).
| Time | Temp. | Humidity | Pressure | Rain* | Wind** | Luminosity | Snow |
|---|---|---|---|---|---|---|---|
| 1777871899 | 8.89° C | 67% | 1020.6 hPa | - | - | - | - |
| 1777870999 | 8.89° C | 74% | 1020.5 hPa | - | - | - | - |
| 1777870099 | 6.11° C | 89% | 1020.5 hPa | - | - | - | - |
| 1777869206 | 3.33° C | 91% | 1020.5 hPa | - | - | - | - |
| 1777867401 | 1.67° C | 91% | 1020.4 hPa | - | - | - | - |
| 1777866501 | 1.67° C | 91% | 1020.3 hPa | - | - | - | - |
| 1777865600 | 1.67° C | 90% | 1020.2 hPa | - | - | - | - |
| 1777864700 | 1.67° C | 89% | 1020.2 hPa | - | - | - | - |
| 1777863800 | 1.67° C | 90% | 1020.3 hPa | - | - | - | - |
| 1777862900 | 1.67° C | 89% | 1020.2 hPa | - | - | - | - |
| 1777862000 | 2.22° C | 89% | 1020.1 hPa | - | - | - | - |
| 1777861100 | 2.22° C | 89% | 1020.1 hPa | - | - | - | - |
| 1777860200 | 2.22° C | 88% | 1020 hPa | - | - | - | - |
| 1777859300 | 2.78° C | 88% | 1020 hPa | - | - | - | - |
| 1777858400 | 2.78° C | 86% | 1019.9 hPa | - | - | - | - |
| 1777857500 | 2.78° C | 86% | 1019.9 hPa | - | - | - | - |
| 1777856599 | 2.78° C | 85% | 1020 hPa | - | - | - | - |
| 1777855700 | 3.33° C | 84% | 1020 hPa | - | - | - | - |
| 1777854799 | 3.33° C | 84% | 1020 hPa | - | - | - | - |
| 1777853899 | 3.33° C | 84% | 1020.1 hPa | - | - | - | - |
| 1777852999 | 3.89° C | 84% | 1020.1 hPa | - | - | - | - |
| 1777852099 | 3.89° C | 82% | 1020.1 hPa | - | - | - | - |
| 1777851199 | 3.89° C | 80% | 1020.2 hPa | - | - | - | - |
| 1777850299 | 3.89° C | 81% | 1020 hPa | - | - | - | - |
| 1777849399 | 4.44° C | 80% | 1020.2 hPa | - | - | - | - |
* Rain since midnight (hover to see other rain measurements)
** Current wind speed in m/s (hover to see current wind gust speed)